Latest Weather Observations for Melbourne

IDV60901

Issued at 4:35 pm EST Wednesday 23 April 2014 (issued every 10 minutes, with the page automatically refreshed every 10 minutes)

About weather observations | Map of Melbourne area stations | Latest observations for Melbourne area | Other Formats
Station Details ID: 086071 Name: MELBOURNE REGIONAL OFFICE Lat: -37.81 Lon: 144.97 Height: 31.15 m
Data from the previous 72 hours. | See also: Recent months at Melbourne

* Apparent temperature (App Temp) for Melbourne is calculated using temperature observations collected at Melbourne and wind observations collected at Essendon Airport, as wind observations are not currently provided for Melbourne.

Date/Time
EST
Tmp

°C
App
Tmp
°C
Dew
Point
°C
Rel
Hum
%
Delta-T

°C
Wind Press
QNH
hPa
Press
MSL
hPa
Rain
since
9 am
mm
Dir
 
Spd
km/h
Gust
km/h
Spd
kts
Gust
kts
23/04:30pm 18.3 16.1 7.9 50 5.3 - 9 - 5 - 1013.3 - 0.2
23/04:00pm 17.8 16.4 8.7 55 4.7 - 6 - 3 - 1013.3 - 0.2
23/03:30pm 18.1 16.6 9.3 56 4.6 - 7 - 4 - 1013.4 - 0.2
23/03:00pm 18.2 16.6 8.8 54 4.9 - 7 - 4 - 1013.4 1013.3 0.2
23/02:30pm 17.9 16.0 9.1 56 4.6 - 9 - 5 - 1013.6 - 0.2
23/02:00pm 17.9 15.8 9.8 59 4.3 - 11 - 6 - 1013.9 - 0.2
23/01:30pm 19.2 17.8 9.6 53 5.1 - 7 - 4 - 1014.3 - 0.2
23/01:00pm 17.5 15.4 8.3 54 4.7 - 9 - 5 - 1014.9 - 0.2
23/12:30pm 18.6 15.6 7.8 49 5.5 - 13 - 7 - 1015.4 - 0.0
23/12:00pm 18.3 16.7 8.6 53 5.0 - 7 - 4 - 1015.8 1015.7 0.0
23/11:30am 17.1 15.7 8.7 57 4.3 - 6 - 3 - 1016.1 - 0.0
23/11:00am 16.5 15.3 9.4 63 3.7 - 6 - 3 - 1016.2 - 0.0
23/10:30am 15.9 13.6 9.1 64 3.5 - 11 - 6 - 1016.9 - 0.0
23/10:00am 15.1 12.7 8.6 65 3.3 - 11 - 6 - 1016.9 - 0.0
23/09:30am 13.9 11.1 8.5 70 2.7 - 13 - 7 - 1017.2 - 0.0
23/09:00am 13.2 10.4 8.6 73 2.3 - 13 - 7 - 1017.1 1017.1 6.0
23/08:30am 13.0 11.0 8.8 75 2.1 - 9 - 5 - 1016.7 - 6.0
23/08:00am 12.3 10.5 9.3 82 1.5 - 9 - 5 - 1016.7 - 6.0
23/07:30am 12.3 10.1 9.3 82 1.5 - 11 - 6 - 1016.5 - 6.0
23/07:00am 12.3 10.5 9.3 82 1.5 - 9 - 5 - 1016.2 - 6.0
23/06:30am 12.4 10.6 9.4 82 1.5 - 9 - 5 - 1016.2 - 6.0
23/06:00am 12.6 10.9 9.9 83 1.4 - 9 - 5 - 1016.5 1016.4 6.0
23/05:30am 12.9 11.7 10.4 85 1.3 - 7 - 4 - 1016.2 - 6.0
23/05:00am 13.2 11.4 10.9 86 1.2 - 11 - 6 - 1016.2 - 6.0
23/04:30am 13.2 12.2 10.9 86 1.2 - 7 - 4 - 1016.1 - 6.0
23/04:00am 13.2 11.6 10.3 82 1.5 - 9 - 5 - 1016.0 - 6.0
23/03:30am 14.0 12.5 10.6 80 1.8 - 9 - 5 - 1016.1 - 6.0
23/03:00am 13.8 13.1 11.9 88 1.0 - 7 - 4 - 1016.2 1016.1 6.0
23/02:30am 14.0 12.9 12.0 88 1.1 - 9 - 5 - 1016.5 - 6.0
23/02:00am 14.0 13.2 11.6 85 1.3 - 7 - 4 - 1016.6 - 6.0
23/01:30am 14.2 13.3 11.2 82 1.6 - 7 - 4 - 1017.0 - 6.0
23/01:00am 13.9 13.0 11.5 85 1.3 - 7 - 4 - 1017.0 - 6.0
23/12:30am 14.1 14.4 10.9 81 1.7 CALM 0 - 0 - 1017.2 - 6.0
23/12:00am 14.6 14.8 10.6 77 2.1 CALM 0 - 0 - 1017.3 1017.3 6.0
 
Date/Time
EST
Tmp

°C
App
Tmp
°C
Dew
Point
°C
Rel
Hum
%
Delta-T

°C
Wind Press
QNH
hPa
Press
MSL
hPa
Rain
since
9 am
mm
Dir
 
Spd
km/h
Gust
km/h
Spd
kts
Gust
kts
22/11:30pm 14.4 14.9 11.6 83 1.5 CALM 0 - 0 - 1017.4 - 6.0
22/11:00pm 14.6 15.2 12.0 84 1.4 CALM 0 - 0 - 1017.7 - 6.0
22/10:30pm 14.7 14.6 12.1 84 1.4 - 4 - 2 - 1017.9 - 6.0
22/10:00pm 14.8 15.6 12.4 85 1.3 CALM 0 - 0 - 1018.0 - 6.0
22/09:30pm 14.4 14.8 12.6 89 1.0 - 2 - 1 - 1017.7 - 6.0
22/09:00pm 14.4 13.6 12.8 90 0.9 - 9 - 5 - 1017.4 1017.4 6.0
22/08:30pm 14.8 12.9 11.8 82 1.6 - 13 - 7 - 1017.2 - 6.0
22/08:00pm 14.3 11.9 12.7 90 0.9 - 17 - 9 - 1017.2 - 6.0
22/07:30pm 14.5 13.9 13.4 93 0.6 - 9 - 5 - 1016.9 - 6.0
22/07:00pm 14.7 14.3 14.0 96 0.4 - 9 - 5 - 1016.6 - 6.0
22/06:30pm 15.0 14.4 13.6 91 0.8 - 9 - 5 - 1016.3 - 6.0
22/06:00pm 14.8 14.7 13.9 94 0.5 - 7 - 4 - 1016.0 1015.9 6.0
22/05:30pm 15.0 14.9 13.9 93 0.6 - 7 - 4 - 1015.7 - 5.8
22/05:00pm 14.9 16.2 14.2 96 0.4 CALM 0 - 0 - 1015.4 - 4.8
22/04:30pm 15.0 15.1 13.9 93 0.6 - 6 - 3 - 1015.3 - 4.4
22/04:00pm 15.2 14.3 13.8 91 0.8 - 11 - 6 - 1015.0 - 3.6
22/03:30pm 16.6 17.1 12.8 78 2.1 - 2 - 1 - 1014.9 - 2.8
22/03:00pm 16.6 16.9 12.2 75 2.4 - 2 - 1 - 1014.4 1014.3 2.8
22/02:30pm 16.3 14.9 12.1 76 2.3 - 11 - 6 - 1014.3 - 2.8
22/02:00pm 16.1 15.3 12.9 81 1.8 - 9 - 5 - 1014.2 - 2.8
22/01:30pm 15.8 14.1 12.3 80 1.9 - 13 - 7 - 1014.3 - 2.8
22/01:00pm 15.9 14.1 11.0 72 2.6 - 11 - 6 - 1014.5 - 2.8
22/12:30pm 15.9 12.5 10.4 70 2.9 - 19 - 10 - 1014.7 - 2.6
22/12:00pm 15.2 10.8 10.5 73 2.5 - 24 - 13 - 1015.1 1015.0 2.6
22/11:30am 14.8 10.0 10.2 74 2.4 - 26 - 14 - 1015.3 - 2.4
22/11:00am 14.4 10.3 10.2 76 2.2 - 22 - 12 - 1015.6 - 2.4
22/10:30am 13.8 10.2 10.5 80 1.7 - 20 - 11 - 1015.3 - 2.4
22/10:00am 13.7 8.9 10.2 79 1.8 - 26 - 14 - 1015.9 - 2.2
22/09:30am 13.7 9.6 10.0 78 1.9 - 22 - 12 - 1015.6 - 0.4
22/09:00am 13.3 9.7 10.4 82 1.5 - 20 - 11 - 1015.6 1015.5 5.6
22/08:30am 13.7 9.6 10.0 78 1.9 - 22 - 12 - 1015.7 - 3.8
22/08:00am 13.6 11.1 11.1 85 1.3 - 15 - 8 - 1016.3 - 2.0
22/07:30am 16.1 12.4 8.0 58 4.1 - 17 - 9 - 1015.7 - 0.0
22/07:00am 16.2 9.7 6.6 53 4.7 - 30 - 16 - 1015.1 - 0.0
22/06:30am 16.6 10.3 5.6 48 5.3 - 28 - 15 - 1014.9 - 0.0
22/06:00am 16.7 9.9 5.2 46 5.5 - 30 - 16 - 1015.1 1015.0 0.0
22/05:30am 16.8 9.6 4.8 45 5.7 - 32 - 17 - 1014.6 - 0.0
22/05:00am 17.4 10.1 4.6 42 6.1 - 32 - 17 - 1014.2 - 0.0
22/04:30am 17.4 9.4 4.0 41 6.3 - 35 - 19 - 1012.9 - 0.0
22/04:00am 17.6 8.9 4.0 40 6.4 - 39 - 21 - 1012.4 - 0.0
22/03:30am 17.4 8.0 4.3 42 6.2 - 43 - 23 - 1012.2 - 0.0
22/03:00am 17.3 7.8 4.1 41 6.2 - 43 - 23 - 1012.3 1012.2 0.0
22/02:30am 17.5 8.0 4.1 41 6.3 - 43 - 23 - 1012.6 - 0.0
22/02:00am 17.6 8.2 4.3 41 6.3 - 43 - 23 - 1012.7 - 0.0
22/01:30am 17.5 8.1 4.4 42 6.2 - 43 - 23 - 1012.8 - 0.0
22/01:00am 17.4 7.8 4.6 42 6.1 - 44 - 24 - 1012.8 - 0.0
22/12:30am 17.4 8.4 4.6 42 6.1 - 41 - 22 - 1013.3 - 0.0
22/12:00am 17.4 8.4 4.6 42 6.1 - 41 - 22 - 1013.7 1013.6 0.0
 
Date/Time
EST
Tmp

°C
App
Tmp
°C
Dew
Point
°C
Rel
Hum
%
Delta-T

°C
Wind Press
QNH
hPa
Press
MSL
hPa
Rain
since
9 am
mm
Dir
 
Spd
km/h
Gust
km/h
Spd
kts
Gust
kts
21/11:30pm 17.3 8.7 4.4 42 6.1 - 39 - 21 - 1014.0 - 0.0
21/11:00pm 17.2 8.6 4.8 44 5.9 - 39 - 21 - 1014.2 - 0.0
21/10:30pm 17.2 7.8 4.5 43 6.0 - 43 - 23 - 1014.3 - 0.0
21/10:00pm 17.1 8.9 5.0 44 5.8 - 37 - 20 - 1014.6 - 0.0
21/09:30pm 17.1 8.1 4.7 44 5.9 - 41 - 22 - 1014.8 - 0.0
21/09:00pm 17.2 7.7 5.1 44 5.8 - 44 - 24 - 1014.8 1014.7 0.0
21/08:30pm 17.2 7.9 5.1 44 5.8 - 43 - 23 - 1015.0 - 0.0
21/08:00pm 17.3 8.0 5.0 44 5.9 - 43 - 23 - 1014.8 - 0.0
21/07:30pm 17.2 8.0 5.4 45 5.7 - 43 - 23 - 1014.7 - 0.0
21/07:00pm 17.3 7.9 5.2 45 5.8 - 44 - 24 - 1014.9 - 0.0
21/06:30pm 17.3 8.9 5.5 45 5.7 - 39 - 21 - 1014.7 - 0.0
21/06:00pm 17.5 8.3 5.3 44 5.9 - 43 - 23 - 1014.4 1014.3 0.0
21/05:30pm 17.6 9.2 5.4 44 5.9 - 39 - 21 - 1014.2 - 0.0
21/05:00pm 17.6 9.9 5.4 44 5.9 - 35 - 19 - 1014.2 - 0.0
21/04:30pm 17.7 9.2 5.3 44 6.0 - 39 - 21 - 1014.6 - 0.0
21/04:00pm 18.1 9.7 5.6 44 6.1 - 39 - 21 - 1014.6 - 0.0
21/03:30pm 18.1 11.0 5.3 43 6.2 - 32 - 17 - 1015.1 - 0.0
21/03:00pm 18.0 10.2 5.1 42 6.2 - 35 - 19 - 1015.9 1015.8 0.0
21/02:30pm 17.5 11.0 4.7 42 6.1 - 28 - 15 - 1016.0 - 0.0
21/02:00pm 17.3 10.4 4.4 42 6.1 - 30 - 16 - 1015.9 - 0.0
21/01:30pm 17.8 9.5 4.3 40 6.4 - 37 - 20 - 1016.0 - 0.0
21/01:00pm 17.6 9.4 4.8 42 6.1 - 37 - 20 - 1016.4 - 0.0
21/12:30pm 17.4 10.0 3.9 40 6.3 - 32 - 17 - 1017.0 - 0.0
21/12:00pm 17.5 10.1 3.8 40 6.4 - 32 - 17 - 1017.3 1017.3 0.0
21/11:30am 17.0 8.9 3.3 40 6.3 - 35 - 19 - 1018.1 - 0.0
21/11:00am 16.5 8.4 3.2 41 6.1 - 35 - 19 - 1018.6 - 0.0
21/10:30am 16.2 7.3 3.3 42 5.9 - 39 - 21 - 1018.9 - 0.0
21/10:00am 15.4 7.3 3.3 44 5.5 - 35 - 19 - 1019.0 - 0.0
21/09:30am 14.9 7.3 3.7 47 5.1 - 33 - 18 - 1019.2 - 0.0
21/09:00am 14.3 7.2 3.4 48 4.9 - 30 - 16 - 1019.4 1019.4 0.0
21/08:30am 14.1 7.5 4.0 50 4.6 - 28 - 15 - 1019.2 - 0.0
21/08:00am 13.3 7.0 4.0 53 4.2 - 26 - 14 - 1019.0 - 0.0
21/07:30am 12.7 6.8 4.1 56 3.9 - 24 - 13 - 1019.1 - 0.0
21/07:00am 12.6 6.8 4.2 56 3.8 - 24 - 13 - 1018.7 - 0.0
21/06:30am 12.7 5.7 4.3 56 3.8 - 30 - 16 - 1018.7 - 0.0
21/06:00am 12.7 6.5 4.3 56 3.8 - 26 - 14 - 1018.5 1018.5 0.0
21/05:30am 12.7 6.6 4.9 59 3.6 - 26 - 14 - 1018.3 - 0.0
21/05:00am 12.8 6.3 4.7 58 3.7 - 28 - 15 - 1018.3 - 0.0
21/04:30am 12.8 6.6 4.5 57 3.8 - 26 - 14 - 1018.1 - 0.0
21/04:00am 12.8 6.3 4.7 58 3.7 - 28 - 15 - 1018.0 - 0.0
21/03:30am 12.7 5.9 4.9 59 3.6 - 30 - 16 - 1018.0 - 0.0
21/03:00am 12.8 5.5 4.7 58 3.7 - 32 - 17 - 1017.8 1017.8 0.0
21/02:30am 13.1 6.6 4.6 56 3.9 - 28 - 15 - 1017.9 - 0.0
21/02:00am 13.5 6.9 4.3 53 4.2 - 28 - 15 - 1018.0 - 0.0
21/01:30am 13.8 6.9 4.4 53 4.3 - 30 - 16 - 1018.1 - 0.0
21/01:00am 14.3 8.0 4.0 50 4.7 - 26 - 14 - 1018.1 - 0.0
21/12:30am 14.4 8.2 4.2 50 4.7 - 26 - 14 - 1018.1 - 0.0
21/12:00am 14.2 7.2 4.2 51 4.6 - 30 - 16 - 1017.9 1017.9 0.0
 
Date/Time
EST
Tmp

°C
App
Tmp
°C
Dew
Point
°C
Rel
Hum
%
Delta-T

°C
Wind Press
QNH
hPa
Press
MSL
hPa
Rain
since
9 am
mm
Dir
 
Spd
km/h
Gust
km/h
Spd
kts
Gust
kts
20/11:30pm 14.2 8.0 4.4 51 4.5 - 26 - 14 - 1018.1 - 0.0
20/11:00pm 14.3 8.6 4.8 53 4.4 - 24 - 13 - 1018.2 - 0.0
20/10:30pm 14.5 9.5 4.6 51 4.6 - 20 - 11 - 1018.3 - 0.0
20/10:00pm 14.8 9.9 5.0 52 4.6 - 20 - 11 - 1018.3 - 0.0
20/09:30pm 15.1 10.4 5.1 51 4.7 - 19 - 10 - 1018.2 - 0.0
20/09:00pm 15.1 10.8 5.4 52 4.6 - 17 - 9 - 1018.1 1018.1 0.0
20/08:30pm 15.3 11.5 5.7 52 4.6 - 15 - 8 - 1018.1 - 0.0
20/08:00pm 15.3 11.0 5.1 50 4.8 - 17 - 9 - 1017.9 - 0.0
20/07:30pm 15.4 11.5 5.5 51 4.7 - 15 - 8 - 1017.8 - 0.0
20/07:00pm 15.8 12.0 5.8 51 4.8 - 15 - 8 - 1017.6 - 0.0
20/06:30pm 16.1 13.4 5.7 50 5.0 - 9 - 5 - 1017.3 - 0.0
20/06:00pm 16.8 13.6 5.3 46 5.5 - 11 - 6 - 1017.0 1016.9 0.0
20/05:30pm 17.9 13.9 5.0 42 6.2 - 15 - 8 - 1016.6 - 0.0
20/05:00pm 18.1 14.0 4.4 40 6.5 - 15 - 8 - 1016.4 - 0.0

Latest Capital City Observations: Canberra | Sydney | Melbourne | Brisbane | Adelaide | Perth | Hobart | Darwin

Other Formats:

Comma delimited format used in spreadsheet applications
http://www.bom.gov.au/fwo/IDV60901/IDV60901.94868.axf

JavaScript Object Notation format (JSON) in row-major order
http://www.bom.gov.au/fwo/IDV60901/IDV60901.94868.json